Time;durP1;ratioP1;P1;durP2;ratioP2;P2;SDS_P1;SDS_P2;PMS_P1;PMS_P2;Temp;Humidity;BMP_temperature;BMP_pressure;BME280_temperature;BME280_humidity;BME280_pressure;Samples;Min_cycle;Max_cycle;Signal;HPM_P1;HPM_P2
2021/11/21 00:39:53;;;;;;;9.63;8.65;;;9.00;99.90;;;;;;7418484;19;20315;-89
2021/11/21 00:42:38;;;;;;;9.75;8.75;;;9.00;99.90;;;;;;7407147;19;20364;-89
2021/11/21 00:45:17;;;;;;;9.43;8.43;;;9.00;99.90;;;;;;7294619;19;2004274;-89
2021/11/21 00:48:26;;;;;;;9.50;8.52;;;8.90;99.90;;;;;;7395068;19;20293;-88
2021/11/21 00:50:58;;;;;;;9.98;8.93;;;9.00;99.90;;;;;;7213512;19;2007441;-89
2021/11/21 00:53:36;;;;;;;10.13;9.13;;;9.00;99.90;;;;;;7423470;19;20293;-88
2021/11/21 00:56:09;;;;;;;9.27;8.13;;;9.00;99.90;;;;;;7279212;19;2004027;-90
2021/11/21 00:58:39;;;;;;;11.20;9.25;;;8.90;99.90;;;;;;7374686;19;20332;-90
2021/11/21 01:01:11;;;;;;;10.35;8.82;;;8.90;99.90;;;;;;7392464;19;20311;-89
2021/11/21 01:28:29;;;;;;;12.30;9.43;;;8.80;99.90;;;;;;7349701;19;20345;-89
2021/11/21 01:31:01;;;;;;;11.73;10.15;;;8.80;99.90;;;;;;7419179;19;20307;-87
2021/11/21 01:33:37;;;;;;;12.40;10.48;;;8.80;99.90;;;;;;7399804;19;20293;-88
2021/11/21 02:04:04;;;;;;;12.63;10.88;;;8.60;99.90;;;;;;7352955;19;20351;-87
2021/11/21 02:28:16;;;;;;;10.23;9.15;;;8.60;99.90;;;;;;7378096;19;20393;-90
2021/11/21 02:42:29;;;;;;;12.05;10.38;;;8.50;99.90;;;;;;7399309;19;20339;-89
2021/11/21 02:44:59;;;;;;;10.50;9.05;;;8.50;99.90;;;;;;7395816;19;20335;-87
2021/11/21 09:32:09;;;;;;;12.13;8.68;;;8.10;99.90;;;;;;7355446;19;20364;-82
2021/11/21 09:34:36;;;;;;;9.80;8.77;;;8.10;99.90;;;;;;7417431;19;20410;-81
2021/11/21 09:37:06;;;;;;;10.95;9.35;;;8.10;99.90;;;;;;7420300;19;20360;-81
2021/11/21 09:39:37;;;;;;;10.50;9.40;;;8.20;99.90;;;;;;7399521;19;20342;-81
2021/11/21 09:48:01;;;;;;;10.95;9.02;;;8.30;99.90;;;;;;7406063;19;20360;-84
2021/11/21 09:53:29;;;;;;;10.43;9.07;;;8.40;99.90;;;;;;7355262;19;20336;31
2021/11/21 10:05:36;;;;;;;13.18;9.63;;;8.60;99.90;;;;;;7335821;19;20344;-81
2021/11/21 10:08:29;;;;;;;10.45;8.35;;;8.60;99.90;;;;;;7329396;19;20367;-81
2021/11/21 10:11:04;;;;;;;11.00;8.35;;;8.60;99.90;;;;;;7345002;19;20304;-80
2021/11/21 10:13:45;;;;;;;9.48;8.13;;;8.70;99.90;;;;;;7414411;19;20332;-79
2021/11/21 10:16:35;;;;;;;9.88;8.30;;;8.90;99.90;;;;;;7298275;19;2004416;-81
2021/11/21 10:19:14;;;;;;;9.68;8.70;;;8.70;99.90;;;;;;7238644;19;2004057;-80
2021/11/21 10:24:56;;;;;;;9.90;8.20;;;8.70;99.90;;;;;;7382177;19;20336;-80
2021/11/21 10:27:24;;;;;;;10.25;8.80;;;8.70;99.90;;;;;;7282787;19;2004722;-82
2021/11/21 10:29:56;;;;;;;11.00;8.55;;;8.70;99.90;;;;;;7329401;19;20401;-83
2021/11/21 10:32:50;;;;;;;10.23;9.02;;;8.70;99.90;;;;;;7380116;19;20338;-82
2021/11/21 10:38:41;;;;;;;10.75;8.40;;;8.80;99.90;;;;;;7431013;19;20395;-83
2021/11/21 10:41:16;;;;;;;13.15;8.77;;;8.70;99.90;;;;;;7299838;19;2004394;-81
2021/11/21 10:43:58;;;;;;;9.73;8.60;;;8.90;99.90;;;;;;7378482;19;20331;-86
2021/11/21 10:47:11;;;;;;;10.35;8.20;;;8.90;99.90;;;;;;7329622;19;20324;-81
2021/11/21 14:13:46;;;;;;;9.20;8.30;;;7.60;99.90;;;;;;7372396;19;20359;-81
2021/11/21 14:16:21;;;;;;;11.82;7.93;;;7.60;99.90;;;;;;7384439;19;20373;-81
2021/11/21 21:23:49;;;;;;;1.98;1.67;;;6.90;99.90;;;;;;7354416;19;20395;-83
2021/11/21 21:27:15;;;;;;;2.67;1.73;;;7.00;99.90;;;;;;7304082;19;2004447;-81
2021/11/21 21:34:05;;;;;;;2.30;2.10;;;6.90;99.90;;;;;;7401383;19;20336;-79
2021/11/21 21:37:30;;;;;;;1.77;1.67;;;6.90;99.90;;;;;;7267499;19;20352;-80
2021/11/21 21:40:30;;;;;;;2.17;2.05;;;6.80;99.90;;;;;;7314669;19;20375;-80
2021/11/21 22:05:20;;;;;;;3.55;2.75;;;6.70;99.90;;;;;;7336746;19;20355;-79
2021/11/21 22:08:43;;;;;;;2.50;2.30;;;6.70;99.90;;;;;;7316903;19;20328;-78
2021/11/21 22:12:23;;;;;;;3.90;3.50;;;6.60;99.90;;;;;;7286377;19;2004933;-80
2021/11/21 22:15:42;;;;;;;8.25;6.50;;;6.60;99.90;;;;;;7352252;19;20346;-80
2021/11/21 22:18:52;;;;;;;9.07;6.18;;;6.60;99.90;;;;;;7293839;19;2003658;-79
2021/11/21 22:21:42;;;;;;;3.88;3.47;;;6.60;99.90;;;;;;7239497;19;2004237;-79
2021/11/21 22:24:19;;;;;;;10.25;9.15;;;6.50;99.90;;;;;;7366208;19;20308;-81
2021/11/21 22:27:17;;;;;;;3.37;3.07;;;6.40;99.90;;;;;;7357580;19;20352;-80
